createdAt,value
2023-05-25T00:01:02.453Z,6.57
2023-05-25T00:03:33.115Z,7.45
2023-05-25T00:06:03.224Z,8.17
2023-05-25T00:08:29.915Z,7.40
2023-05-25T00:10:56.631Z,9.77
2023-05-25T00:14:45.267Z,8.20
2023-05-25T00:17:37.327Z,7.95
2023-05-25T00:20:07.838Z,8.93
2023-05-25T00:22:35.801Z,8.52
2023-05-25T00:25:03.361Z,7.55
2023-05-25T00:27:30.398Z,9.02
2023-05-25T00:29:57.293Z,8.05
2023-05-25T00:32:24.034Z,9.13
2023-05-25T00:34:50.715Z,7.75
2023-05-25T00:37:17.943Z,8.35
2023-05-25T00:39:44.642Z,8.55
2023-05-25T00:42:11.322Z,7.68
2023-05-25T00:44:38.427Z,7.83
2023-05-25T00:47:05.276Z,6.72
2023-05-25T00:49:35.492Z,7.43
2023-05-25T00:52:03.446Z,7.95
2023-05-25T00:54:30.095Z,8.30
2023-05-25T00:57:00.229Z,9.53
2023-05-25T00:59:40.862Z,6.53
2023-05-25T01:02:13.748Z,10.20
2023-05-25T01:04:46.860Z,6.47
2023-05-25T01:07:25.239Z,9.15
2023-05-25T01:09:58.422Z,6.53
2023-05-25T01:12:28.945Z,9.13
2023-05-25T01:14:56.751Z,7.13
2023-05-25T01:17:26.452Z,9.52
2023-05-25T01:20:08.980Z,6.28
2023-05-25T01:22:43.153Z,9.43
2023-05-25T01:25:22.494Z,8.30
2023-05-25T01:27:53.510Z,8.25
2023-05-25T01:30:24.624Z,10.10
2023-05-25T01:32:53.772Z,8.52
2023-05-25T01:35:21.770Z,8.07
2023-05-25T01:37:49.844Z,11.00
2023-05-25T01:40:16.475Z,9.43
2023-05-25T01:42:43.408Z,10.65
2023-05-25T01:45:11.766Z,9.23
2023-05-25T01:47:57.330Z,11.03
2023-05-25T01:50:35.828Z,8.10
2023-05-25T01:53:11.924Z,10.40
2023-05-25T01:55:48.048Z,7.63
2023-05-25T01:58:15.474Z,11.35
2023-05-25T02:00:42.968Z,9.10
2023-05-25T02:03:10.419Z,8.77
2023-05-25T02:05:37.796Z,10.68
2023-05-25T02:08:06.638Z,8.70
2023-05-25T02:10:33.275Z,7.18
2023-05-25T02:12:59.807Z,9.33
2023-05-25T02:15:31.937Z,9.73
2023-05-25T02:18:00.117Z,9.13
2023-05-25T02:20:30.794Z,9.57
2023-05-25T02:22:57.402Z,9.38
2023-05-25T02:25:24.014Z,8.97
2023-05-25T02:27:50.796Z,9.38
2023-05-25T02:30:17.488Z,9.00
2023-05-25T02:32:44.086Z,10.60
2023-05-25T02:35:10.776Z,7.75
2023-05-25T02:37:38.483Z,10.23
2023-05-25T02:40:06.122Z,8.27
2023-05-25T02:42:32.665Z,9.27
2023-05-25T02:44:59.291Z,9.45
2023-05-25T02:47:26.228Z,10.73
2023-05-25T02:49:52.936Z,7.43
2023-05-25T02:52:19.750Z,10.65
2023-05-25T02:54:46.395Z,11.52
2023-05-25T02:57:19.499Z,10.57
2023-05-25T02:59:46.955Z,11.15
2023-05-25T03:02:13.595Z,12.23
2023-05-25T03:04:41.850Z,11.82
2023-05-25T03:07:08.921Z,11.07
2023-05-25T03:09:35.717Z,9.65
2023-05-25T03:12:03.645Z,12.68
2023-05-25T03:14:30.382Z,8.07
2023-05-25T03:17:03.514Z,8.45
2023-05-25T03:19:30.288Z,10.27
2023-05-25T03:21:56.852Z,7.30
2023-05-25T03:24:23.541Z,10.38
2023-05-25T03:26:50.422Z,11.77
2023-05-25T03:29:18.017Z,7.43
2023-05-25T03:31:44.619Z,11.27
2023-05-25T03:34:11.681Z,13.48
2023-05-25T03:36:39.114Z,11.18
2023-05-25T03:39:06.422Z,9.97
2023-05-25T03:41:33.180Z,12.90
2023-05-25T03:43:59.828Z,9.23
2023-05-25T03:46:26.514Z,10.07
2023-05-25T03:48:56.280Z,8.65
2023-05-25T03:51:22.873Z,10.93
2023-05-25T03:53:49.503Z,10.75
2023-05-25T03:56:16.153Z,10.35
2023-05-25T03:58:42.808Z,11.77
2023-05-25T04:01:10.400Z,13.32
2023-05-25T04:03:37.263Z,11.73
2023-05-25T04:06:04.286Z,10.77
2023-05-25T04:08:30.922Z,11.02
2023-05-25T04:10:57.836Z,11.60
2023-05-25T04:13:24.442Z,12.07
2023-05-25T04:15:51.309Z,11.20
2023-05-25T04:18:21.760Z,11.98
2023-05-25T04:20:49.419Z,9.70
2023-05-25T04:23:19.546Z,10.98
2023-05-25T04:25:46.578Z,9.02
2023-05-25T04:28:14.462Z,13.13
2023-05-25T04:30:56.825Z,11.45
2023-05-25T04:33:38.686Z,11.60
2023-05-25T04:36:18.074Z,12.93
2023-05-25T04:38:47.883Z,10.32
2023-05-25T04:41:15.314Z,15.97
2023-05-25T04:44:00.913Z,11.65
2023-05-25T04:46:31.893Z,12.45
2023-05-25T04:48:59.223Z,9.52
2023-05-25T04:51:25.864Z,12.05
2023-05-25T04:53:52.923Z,12.57
2023-05-25T04:56:19.584Z,10.63
2023-05-25T04:58:46.181Z,11.63
2023-05-25T05:01:13.174Z,12.98
2023-05-25T05:03:39.917Z,13.15
2023-05-25T05:06:07.526Z,9.83
2023-05-25T05:08:34.741Z,16.30
2023-05-25T05:11:02.462Z,13.50
2023-05-25T05:13:29.551Z,13.45
2023-05-25T05:15:57.003Z,13.52
2023-05-25T05:18:23.699Z,12.00
2023-05-25T05:20:51.246Z,12.30
2023-05-25T05:23:18.509Z,12.77
2023-05-25T05:25:46.505Z,11.63
2023-05-25T05:28:14.582Z,13.07
2023-05-25T05:30:41.192Z,21.03
2023-05-25T05:33:07.883Z,12.48
2023-05-25T05:35:44.573Z,14.50
2023-05-25T05:38:15.502Z,17.25
2023-05-25T05:40:42.397Z,18.52
2023-05-25T05:43:12.245Z,12.67
2023-05-25T05:45:38.861Z,15.90
2023-05-25T05:48:09.853Z,19.13
2023-05-25T05:50:40.273Z,13.55
2023-05-25T05:53:09.932Z,15.55
2023-05-25T05:55:37.027Z,10.40
2023-05-25T05:58:03.833Z,13.82
2023-05-25T06:00:30.462Z,15.02
2023-05-25T06:02:57.387Z,11.75
2023-05-25T06:05:26.797Z,13.02
2023-05-25T06:07:54.883Z,13.87
2023-05-25T06:10:22.323Z,12.98
2023-05-25T06:12:49.214Z,15.68
2023-05-25T06:15:16.123Z,15.13
2023-05-25T06:17:44.715Z,16.67
2023-05-25T06:20:11.829Z,15.10
2023-05-25T06:22:38.565Z,11.85
2023-05-25T06:25:06.337Z,15.40
2023-05-25T06:27:33.223Z,20.40
2023-05-25T06:30:01.032Z,27.83
2023-05-25T06:32:27.995Z,16.10
2023-05-25T06:34:55.598Z,17.77
2023-05-25T06:37:22.624Z,30.15
2023-05-25T06:39:49.245Z,23.63
2023-05-25T06:42:15.956Z,21.52
2023-05-25T06:44:51.921Z,27.33
2023-05-25T06:47:18.505Z,27.15
2023-05-25T06:49:45.160Z,20.75
2023-05-25T06:52:11.755Z,18.42
2023-05-25T06:54:38.454Z,20.20
2023-05-25T06:57:05.228Z,21.20
2023-05-25T06:59:31.936Z,18.95
2023-05-25T07:02:00.377Z,18.02
2023-05-25T07:04:28.595Z,11.45
2023-05-25T07:06:55.180Z,18.20
2023-05-25T07:09:22.264Z,15.33
2023-05-25T07:11:48.926Z,12.23
2023-05-25T07:14:17.366Z,14.07
2023-05-25T07:16:46.101Z,15.48
2023-05-25T07:19:13.995Z,20.88
2023-05-25T07:21:40.814Z,13.73
2023-05-25T07:24:07.748Z,16.67
2023-05-25T07:26:34.947Z,17.92
2023-05-25T07:29:02.478Z,18.45
2023-05-25T07:31:29.082Z,21.83
2023-05-25T07:33:56.219Z,16.07
2023-05-25T07:36:24.919Z,18.52
2023-05-25T07:38:51.751Z,15.05
2023-05-25T07:41:18.445Z,14.80
2023-05-25T07:43:45.493Z,12.73
2023-05-25T07:46:12.046Z,13.40
2023-05-25T07:48:38.803Z,13.85
2023-05-25T07:51:05.472Z,13.60
2023-05-25T07:53:32.022Z,12.35
2023-05-25T07:55:58.642Z,14.25
2023-05-25T07:58:25.288Z,13.33
2023-05-25T08:00:51.940Z,12.30
2023-05-25T08:03:21.034Z,12.95
2023-05-25T08:05:53.157Z,10.80
2023-05-25T08:08:19.724Z,14.02
2023-05-25T08:10:46.326Z,13.03
2023-05-25T08:13:13.023Z,11.95
2023-05-25T08:15:39.642Z,10.70
2023-05-25T08:18:07.140Z,14.50
2023-05-25T08:20:33.988Z,13.57
2023-05-25T08:23:01.791Z,13.57
2023-05-25T08:25:28.505Z,13.63
2023-05-25T08:27:55.162Z,11.82
2023-05-25T08:30:21.848Z,12.73
2023-05-25T08:32:48.475Z,11.70
2023-05-25T08:35:15.226Z,9.57
2023-05-25T08:37:43.552Z,10.05
2023-05-25T08:40:16.238Z,12.02
2023-05-25T08:42:46.486Z,12.10
2023-05-25T08:45:26.336Z,14.70
2023-05-25T08:48:01.314Z,13.27
2023-05-25T08:50:30.905Z,10.73
2023-05-25T08:52:58.485Z,8.75
2023-05-25T08:55:31.105Z,10.32
2023-05-25T08:58:17.336Z,7.55
2023-05-25T09:00:49.945Z,8.87
2023-05-25T09:03:19.973Z,8.60
2023-05-25T09:05:47.641Z,9.07
2023-05-25T09:08:15.226Z,7.97
2023-05-25T09:10:42.308Z,10.73
2023-05-25T09:13:21.160Z,8.20
2023-05-25T09:15:49.695Z,7.45
2023-05-25T09:18:16.333Z,11.65
2023-05-25T09:20:46.579Z,7.10
2023-05-25T09:23:14.869Z,8.02
2023-05-25T09:25:41.863Z,11.27
2023-05-25T09:28:25.436Z,10.75
2023-05-25T09:30:54.115Z,8.57
2023-05-25T09:33:21.486Z,8.90
2023-05-25T09:35:48.788Z,6.00
2023-05-25T09:38:16.652Z,9.67
2023-05-25T09:40:44.154Z,7.32
2023-05-25T09:43:14.216Z,7.78
2023-05-25T09:45:44.898Z,10.57
2023-05-25T09:48:11.619Z,13.20
2023-05-25T09:50:38.410Z,7.67
2023-05-25T09:53:05.248Z,7.07
2023-05-25T09:55:48.131Z,9.18
2023-05-25T09:58:18.388Z,10.13
2023-05-25T10:00:46.143Z,10.15
2023-05-25T10:03:15.144Z,6.17
2023-05-25T10:05:41.981Z,7.00
2023-05-25T10:08:10.516Z,7.97
2023-05-25T10:10:37.687Z,8.20
2023-05-25T10:13:08.049Z,8.32
2023-05-25T10:15:38.814Z,11.47
2023-05-25T10:18:06.706Z,15.68
2023-05-25T10:20:35.189Z,7.20
2023-05-25T10:23:12.867Z,7.63
2023-05-25T10:25:48.668Z,6.28
2023-05-25T10:28:22.523Z,8.20
2023-05-25T10:30:50.951Z,7.72
2023-05-25T10:33:20.292Z,14.23
2023-05-25T10:36:02.486Z,10.15
2023-05-25T10:38:36.238Z,8.38
2023-05-25T10:41:04.477Z,7.83
2023-05-25T10:43:31.470Z,7.25
2023-05-25T10:45:58.214Z,7.57
2023-05-25T10:48:35.586Z,9.20
2023-05-25T10:51:02.510Z,11.63
2023-05-25T10:53:29.208Z,6.30
2023-05-25T10:56:04.135Z,9.02
2023-05-25T10:58:33.329Z,6.40
2023-05-25T11:01:11.569Z,6.82
2023-05-25T11:03:44.483Z,8.65
2023-05-25T11:06:15.899Z,10.40
2023-05-25T11:08:59.215Z,10.05
2023-05-25T11:11:45.361Z,8.13
2023-05-25T11:14:29.852Z,8.75
2023-05-25T11:17:10.690Z,10.35
2023-05-25T11:19:52.145Z,7.47
2023-05-25T11:22:37.960Z,8.32
2023-05-25T11:28:11.431Z,11.05
2023-05-25T11:30:41.159Z,12.57
2023-05-25T11:33:09.062Z,9.53
2023-05-25T11:35:39.004Z,9.98
2023-05-25T11:38:07.156Z,14.52
2023-05-25T11:40:34.210Z,14.93
2023-05-25T11:43:03.921Z,9.88
2023-05-25T11:45:37.301Z,8.77
2023-05-25T11:48:05.023Z,9.32
2023-05-25T11:50:33.261Z,9.30
2023-05-25T11:52:59.975Z,9.27
2023-05-25T11:55:26.703Z,9.23
2023-05-25T11:57:57.884Z,9.03
2023-05-25T12:00:25.888Z,11.00
2023-05-25T12:02:52.722Z,10.10
2023-05-25T12:05:19.536Z,8.88
2023-05-25T12:07:46.985Z,9.45
2023-05-25T12:10:18.574Z,20.40
2023-05-25T12:12:52.254Z,13.10
2023-05-25T12:15:23.573Z,14.02
2023-05-25T12:17:51.621Z,13.20
2023-05-25T12:20:18.944Z,11.48
2023-05-25T12:22:46.682Z,12.67
2023-05-25T12:25:15.881Z,15.73
2023-05-25T12:27:42.659Z,13.95
2023-05-25T12:30:10.488Z,11.55
2023-05-25T12:33:04.233Z,12.20
2023-05-25T12:35:45.322Z,15.53
2023-05-25T12:38:18.189Z,12.43
2023-05-25T12:40:45.478Z,16.40
2023-05-25T12:43:13.125Z,17.98
2023-05-25T12:45:42.486Z,17.70
2023-05-25T12:48:09.491Z,16.60
2023-05-25T12:50:37.283Z,15.02
2023-05-25T12:53:04.483Z,17.10
2023-05-25T12:55:33.054Z,10.98
2023-05-25T12:58:05.634Z,15.13
2023-05-25T13:00:39.708Z,17.47
2023-05-25T13:03:09.698Z,16.08
2023-05-25T13:05:37.818Z,11.90
2023-05-25T13:08:06.022Z,18.58
2023-05-25T13:10:33.632Z,13.35
2023-05-25T13:13:01.009Z,17.20
2023-05-25T13:15:28.609Z,13.30
2023-05-25T13:17:58.116Z,13.35
2023-05-25T13:20:26.547Z,13.85
2023-05-25T13:22:55.730Z,11.15
2023-05-25T13:25:22.903Z,15.47
2023-05-25T13:27:51.346Z,16.45
2023-05-25T13:30:21.824Z,13.90
2023-05-25T13:32:51.337Z,14.63
2023-05-25T13:35:23.936Z,11.63
2023-05-25T13:37:51.346Z,14.10
2023-05-25T13:40:18.402Z,13.30
2023-05-25T13:42:45.085Z,12.27
2023-05-25T13:45:11.751Z,18.75
2023-05-25T13:47:38.760Z,18.20
2023-05-25T13:50:06.068Z,15.73
2023-05-25T13:52:33.149Z,15.63
2023-05-25T13:54:59.693Z,13.30
2023-05-25T13:57:26.328Z,11.77
2023-05-25T13:59:52.983Z,12.48
2023-05-25T14:02:19.595Z,13.90
2023-05-25T14:04:46.322Z,15.32
2023-05-25T14:07:13.102Z,12.88
2023-05-25T14:09:39.712Z,13.43
2023-05-25T14:12:06.813Z,13.18
2023-05-25T14:14:33.762Z,13.50
2023-05-25T14:17:01.265Z,11.93
2023-05-25T14:19:28.263Z,11.60
2023-05-25T14:24:24.377Z,10.80
2023-05-25T14:26:51.018Z,13.20
2023-05-25T14:29:17.600Z,11.68
2023-05-25T14:31:44.239Z,14.18
2023-05-25T14:34:10.800Z,13.05
2023-05-25T14:36:38.026Z,13.23
2023-05-25T14:39:04.602Z,10.10
2023-05-25T14:41:31.200Z,15.43
2023-05-25T14:43:57.794Z,13.63
2023-05-25T14:46:24.453Z,13.93
2023-05-25T14:48:51.100Z,16.73
2023-05-25T14:51:17.666Z,12.87
2023-05-25T14:53:44.975Z,13.98
2023-05-25T14:56:11.558Z,12.00
2023-05-25T14:58:38.122Z,15.57
2023-05-25T15:01:05.062Z,15.30
2023-05-25T15:03:32.524Z,14.30
2023-05-25T15:05:59.157Z,14.05
2023-05-25T15:08:25.691Z,12.93
2023-05-25T15:10:52.339Z,13.85
2023-05-25T15:13:22.365Z,13.73
2023-05-25T15:15:52.023Z,16.50
2023-05-25T15:18:18.887Z,13.55
2023-05-25T15:20:45.511Z,14.38
2023-05-25T15:23:12.150Z,15.88
2023-05-25T15:25:38.802Z,15.77
2023-05-25T15:28:05.468Z,14.00
2023-05-25T15:30:34.070Z,13.18
2023-05-25T15:33:02.228Z,17.77
2023-05-25T15:35:32.242Z,13.55
2023-05-25T15:37:59.613Z,14.43
2023-05-25T15:40:26.434Z,13.77
2023-05-25T15:42:53.213Z,15.88
2023-05-25T15:45:19.744Z,12.43
2023-05-25T15:47:46.402Z,13.93
2023-05-25T15:50:13.075Z,12.88
2023-05-25T15:52:40.078Z,14.30
2023-05-25T15:55:07.283Z,15.23
2023-05-25T15:57:33.844Z,15.77
2023-05-25T16:00:00.445Z,17.02
2023-05-25T16:02:27.897Z,12.40
2023-05-25T16:04:54.586Z,13.60
2023-05-25T16:07:21.144Z,15.15
2023-05-25T16:09:47.735Z,17.27
2023-05-25T16:12:14.302Z,14.18
2023-05-25T16:14:41.047Z,15.27
2023-05-25T16:17:07.817Z,16.20
2023-05-25T16:19:34.354Z,17.38
2023-05-25T16:22:00.969Z,16.13
2023-05-25T16:24:27.554Z,13.32
2023-05-25T16:26:54.167Z,13.70
2023-05-25T16:29:20.810Z,17.03
2023-05-25T16:31:47.389Z,14.18
2023-05-25T16:34:13.984Z,15.00
2023-05-25T16:36:40.517Z,15.40
2023-05-25T16:39:07.958Z,19.35
2023-05-25T16:41:34.627Z,12.23
2023-05-25T16:44:02.449Z,15.13
2023-05-25T16:46:29.105Z,19.25
2023-05-25T16:48:55.758Z,13.85
2023-05-25T16:51:22.364Z,13.73
2023-05-25T16:53:48.942Z,14.00
2023-05-25T16:56:15.590Z,13.90
2023-05-25T16:58:42.227Z,18.63
2023-05-25T17:01:08.939Z,17.70
2023-05-25T17:03:35.669Z,17.52
2023-05-25T17:06:03.163Z,17.37
2023-05-25T17:08:29.805Z,16.00
2023-05-25T17:10:56.758Z,16.08
2023-05-25T17:13:23.435Z,17.35
2023-05-25T17:15:50.119Z,20.48
2023-05-25T17:18:16.743Z,14.27
2023-05-25T17:20:43.445Z,14.93
2023-05-25T17:23:10.105Z,19.67
2023-05-25T17:25:37.445Z,16.25
2023-05-25T17:28:04.008Z,18.13
2023-05-25T17:30:30.850Z,16.83
2023-05-25T17:33:01.498Z,15.73
2023-05-25T17:35:29.403Z,17.48
2023-05-25T17:37:56.500Z,16.27
2023-05-25T17:40:23.269Z,16.75
2023-05-25T17:42:49.840Z,22.73
2023-05-25T17:45:17.041Z,18.92
2023-05-25T17:47:43.664Z,15.73
2023-05-25T17:50:10.463Z,14.05
2023-05-25T17:52:37.109Z,20.33
2023-05-25T17:55:05.421Z,15.67
2023-05-25T17:57:32.071Z,14.38
2023-05-25T17:59:58.625Z,15.27
2023-05-25T18:02:25.589Z,20.45
2023-05-25T18:04:52.333Z,18.35
2023-05-25T18:07:20.388Z,18.37
2023-05-25T18:09:46.972Z,21.35
2023-05-25T18:12:13.690Z,17.23
2023-05-25T18:14:40.353Z,18.25
2023-05-25T18:17:07.024Z,21.73
2023-05-25T18:19:33.745Z,18.73
2023-05-25T18:22:02.981Z,21.98
2023-05-25T18:24:29.623Z,15.23
2023-05-25T18:26:56.191Z,19.63
2023-05-25T18:29:22.852Z,15.82
2023-05-25T18:31:49.527Z,20.23
2023-05-25T18:34:16.188Z,17.73
2023-05-25T18:36:42.835Z,17.63
2023-05-25T18:39:09.609Z,20.65
2023-05-25T18:41:36.213Z,15.93
2023-05-25T18:44:03.066Z,18.90
2023-05-25T18:46:30.039Z,19.42
2023-05-25T18:48:56.960Z,17.05
2023-05-25T18:51:25.904Z,22.88
2023-05-25T18:53:52.791Z,17.33
2023-05-25T18:56:19.589Z,19.17
2023-05-25T18:58:47.109Z,21.05
2023-05-25T19:01:14.872Z,16.67
2023-05-25T19:03:41.801Z,17.48
2023-05-25T19:06:08.477Z,15.10
2023-05-25T19:08:35.144Z,15.13
2023-05-25T19:11:03.042Z,18.98
2023-05-25T19:13:29.632Z,17.17
2023-05-25T19:15:56.793Z,16.75
2023-05-25T19:18:23.401Z,17.30
2023-05-25T19:20:50.051Z,20.60
2023-05-25T19:23:16.679Z,20.35
2023-05-25T19:25:43.381Z,17.67
2023-05-25T19:28:10.045Z,19.85
2023-05-25T19:30:36.755Z,17.73
2023-05-25T19:33:03.473Z,16.17
2023-05-25T19:35:30.142Z,17.38
2023-05-25T19:37:56.804Z,21.20
2023-05-25T19:40:24.117Z,18.25
2023-05-25T19:42:51.020Z,18.48
2023-05-25T19:45:20.416Z,19.20
2023-05-25T19:47:47.427Z,16.55
2023-05-25T19:50:14.088Z,15.18
2023-05-25T19:52:41.100Z,15.25
2023-05-25T19:55:08.070Z,14.45
2023-05-25T19:57:34.798Z,17.97
2023-05-25T20:00:01.569Z,13.15
2023-05-25T20:02:38.255Z,19.35
2023-05-25T20:05:05.955Z,19.77
2023-05-25T20:07:32.530Z,21.73
2023-05-25T20:09:59.085Z,16.83
2023-05-25T20:12:25.696Z,20.92
2023-05-25T20:14:52.292Z,20.23
2023-05-25T20:17:18.829Z,19.10
2023-05-25T20:19:45.434Z,19.27
2023-05-25T20:22:12.106Z,16.07
2023-05-25T20:24:38.718Z,23.85
2023-05-25T20:27:06.119Z,18.50
2023-05-25T20:29:32.995Z,17.30
2023-05-25T20:31:59.631Z,17.17
2023-05-25T20:34:26.280Z,14.13
2023-05-25T20:36:53.019Z,15.85
2023-05-25T20:39:19.835Z,16.70
2023-05-25T20:41:46.362Z,16.52
2023-05-25T20:44:14.026Z,17.40
2023-05-25T20:46:40.682Z,19.97
2023-05-25T20:49:07.442Z,20.13
2023-05-25T20:51:34.046Z,13.30
2023-05-25T20:54:00.792Z,20.23
2023-05-25T20:56:27.974Z,19.50
2023-05-25T20:58:54.551Z,20.20
2023-05-25T21:01:21.315Z,12.60
2023-05-25T21:03:48.040Z,17.15
2023-05-25T21:06:16.067Z,18.23
2023-05-25T21:08:42.609Z,21.17
2023-05-25T21:11:09.773Z,16.97
2023-05-25T21:13:36.306Z,18.95
2023-05-25T21:16:02.850Z,12.63
2023-05-25T21:18:29.436Z,17.92
2023-05-25T21:20:55.985Z,15.13
2023-05-25T21:23:22.631Z,17.40
2023-05-25T21:25:49.348Z,17.42
2023-05-25T21:28:15.996Z,20.33
2023-05-25T21:30:42.576Z,22.35
2023-05-25T21:33:09.164Z,15.80
2023-05-25T21:35:35.735Z,19.63
2023-05-25T21:38:02.499Z,19.40
2023-05-25T21:40:29.097Z,16.33
2023-05-25T21:42:55.715Z,20.33
2023-05-25T21:45:22.408Z,16.88
2023-05-25T21:47:49.132Z,19.20
2023-05-25T21:50:15.797Z,16.35
2023-05-25T21:52:42.986Z,17.80
2023-05-25T21:55:09.764Z,27.08
2023-05-25T21:57:36.680Z,19.95
2023-05-25T22:00:05.073Z,16.40
2023-05-25T22:02:39.267Z,18.40
2023-05-25T22:05:06.042Z,22.13
2023-05-25T22:07:32.711Z,16.80
2023-05-25T22:09:59.245Z,19.52
2023-05-25T22:12:25.854Z,18.10
2023-05-25T22:14:52.444Z,24.98
2023-05-25T22:17:19.174Z,20.60
2023-05-25T22:19:52.137Z,18.05
2023-05-25T22:22:25.898Z,17.95
2023-05-25T22:24:52.413Z,19.70
2023-05-25T22:27:18.947Z,23.15
2023-05-25T22:29:45.601Z,19.05
2023-05-25T22:32:12.144Z,19.92
2023-05-25T22:34:38.802Z,21.10
2023-05-25T22:37:05.311Z,19.20
2023-05-25T22:39:31.891Z,17.55
2023-05-25T22:41:58.414Z,17.38
2023-05-25T22:44:24.931Z,22.33
2023-05-25T22:46:51.548Z,21.55
2023-05-25T22:49:18.171Z,17.47
2023-05-25T22:51:44.752Z,20.98
2023-05-25T22:54:11.319Z,19.13
2023-05-25T22:56:37.851Z,20.70
2023-05-25T22:59:04.626Z,19.38
2023-05-25T23:01:31.179Z,22.43
2023-05-25T23:03:59.656Z,18.13
2023-05-25T23:06:26.558Z,19.50
2023-05-25T23:08:53.280Z,23.20
2023-05-25T23:11:19.911Z,18.23
2023-05-25T23:13:46.522Z,22.50
2023-05-25T23:16:15.347Z,23.40
2023-05-25T23:18:42.519Z,17.75
2023-05-25T23:21:09.364Z,16.27
2023-05-25T23:23:36.120Z,26.05
2023-05-25T23:26:03.063Z,17.13
2023-05-25T23:28:29.702Z,15.20
2023-05-25T23:30:56.865Z,16.15
2023-05-25T23:33:23.431Z,18.17
2023-05-25T23:35:50.105Z,24.83
2023-05-25T23:38:16.734Z,22.93
2023-05-25T23:40:43.437Z,17.65
2023-05-25T23:43:09.955Z,19.73
2023-05-25T23:45:36.698Z,20.45
2023-05-25T23:48:03.345Z,15.63
2023-05-25T23:50:29.912Z,26.30
2023-05-25T23:52:56.564Z,17.10
2023-05-25T23:55:23.168Z,24.80
2023-05-25T23:57:49.756Z,19.00
